Weather at Collin County Regional At Mc Kinney Airport

Public forecast

Using degrees Fahrenheit for public forecast. Weather courtesy of forecast.io.

Current aviation weather report (METAR) for Collin County Regional At Mc Kinney Airport

Retrieved 2021/01/21 10:07 UTC (39 minutes ago):

KTKI 211007Z AUTO 17004KT 3SM BR CLR 07/06 A3001 RMK AO2 T00670061

Closest aviation forecast (TAF) to Collin County Regional At Mc Kinney Airport

Closest forecast is Dallas Love Field, 23.8 nm (44.1 km) SSW. Retrieved 2021/01/21 06:46 UTC (4 hours ago):

TAF KDAL 210544Z 2106/2206 19009KT 5SM -DZ SCT015 OVC100 TEMPO 2106/2109 4SM -DZ BR BKN015 FM210900 21007KT 4SM -DZ BR BKN040 FM211200 21007KT P6SM OVC100 FM220500 21005KT 5SM -DZ OVC015